createdAt,value
2018-06-13T00:00:46.742Z,85.30
2018-06-13T00:02:48.810Z,84.80
2018-06-13T00:04:50.866Z,84.50
2018-06-13T00:06:52.929Z,84.90
2018-06-13T00:08:55.121Z,84.90
2018-06-13T00:10:57.202Z,84.70
2018-06-13T00:12:59.288Z,84.10
2018-06-13T00:15:01.390Z,83.40
2018-06-13T00:17:03.488Z,84.50
2018-06-13T00:19:05.574Z,84.50
2018-06-13T00:21:07.661Z,84.20
2018-06-13T00:23:09.725Z,84.30
2018-06-13T00:25:11.785Z,83.90
2018-06-13T00:27:13.869Z,83.80
2018-06-13T00:29:15.970Z,84.20
2018-06-13T00:31:18.041Z,84.60
2018-06-13T00:33:20.123Z,84.20
2018-06-13T00:35:22.202Z,84.90
2018-06-13T00:37:24.310Z,85.30
2018-06-13T00:39:26.397Z,85.40
2018-06-13T00:41:28.474Z,85.40
2018-06-13T00:43:30.527Z,85.20
2018-06-13T00:45:32.610Z,85.20
2018-06-13T00:47:34.685Z,85.50
2018-06-13T00:49:36.793Z,85.70
2018-06-13T00:51:38.881Z,85.50
2018-06-13T00:53:40.978Z,85.40
2018-06-13T00:55:54.654Z,85.60
2018-06-13T00:57:56.730Z,85.50
2018-06-13T00:59:58.798Z,85.50
2018-06-13T01:02:00.890Z,86.00
2018-06-13T01:04:02.990Z,85.50
2018-06-13T01:06:05.067Z,85.50
2018-06-13T01:08:07.401Z,85.10
2018-06-13T01:10:09.493Z,85.50
2018-06-13T01:12:11.566Z,85.90
2018-06-13T01:14:13.845Z,85.80
2018-06-13T01:16:15.910Z,85.10
2018-06-13T01:18:18.014Z,86.00
2018-06-13T01:20:20.103Z,85.40
2018-06-13T01:22:22.183Z,85.30
2018-06-13T01:24:24.256Z,85.10
2018-06-13T01:26:26.354Z,84.40
2018-06-13T01:28:28.418Z,84.90
2018-06-13T01:30:30.501Z,85.50
2018-06-13T01:32:32.607Z,85.20
2018-06-13T01:34:34.670Z,84.70
2018-06-13T01:36:36.729Z,84.60
2018-06-13T01:38:38.966Z,84.50
2018-06-13T01:40:41.037Z,84.40
2018-06-13T01:42:43.098Z,84.50
2018-06-13T01:44:45.251Z,84.30
2018-06-13T01:46:47.301Z,84.70
2018-06-13T01:48:49.400Z,84.50
2018-06-13T01:50:55.011Z,84.20
2018-06-13T01:52:57.074Z,83.90
2018-06-13T01:54:59.170Z,83.90
2018-06-13T01:57:01.445Z,83.80
2018-06-13T01:59:03.533Z,83.80
2018-06-13T02:01:05.601Z,84.20
2018-06-13T02:03:07.694Z,84.10
2018-06-13T02:05:09.794Z,84.10
2018-06-13T02:07:11.902Z,84.20
2018-06-13T02:09:13.998Z,84.40
2018-06-13T02:11:16.083Z,84.30
2018-06-13T02:13:18.160Z,84.20
2018-06-13T02:15:20.257Z,83.80
2018-06-13T02:17:22.326Z,83.60
2018-06-13T02:19:24.414Z,83.50
2018-06-13T02:21:26.530Z,83.60
2018-06-13T02:23:28.621Z,83.30
2018-06-13T02:25:30.751Z,83.10
2018-06-13T02:27:32.823Z,83.20
2018-06-13T02:29:34.919Z,83.30
2018-06-13T02:31:36.982Z,83.00
2018-06-13T02:33:39.061Z,83.20
2018-06-13T02:35:41.132Z,83.50
2018-06-13T02:37:43.233Z,83.50
2018-06-13T02:39:45.302Z,83.30
2018-06-13T02:41:47.383Z,83.30
2018-06-13T02:43:49.465Z,83.60
2018-06-13T02:45:51.561Z,83.10
2018-06-13T02:47:53.691Z,82.60
2018-06-13T02:49:55.750Z,82.30
2018-06-13T02:51:57.837Z,82.50
2018-06-13T02:53:59.900Z,82.40
2018-06-13T02:56:01.990Z,82.20
2018-06-13T02:58:04.169Z,82.20
2018-06-13T03:00:06.248Z,82.00
2018-06-13T03:02:08.304Z,81.80
2018-06-13T03:04:10.546Z,81.60
2018-06-13T03:06:12.609Z,81.30
2018-06-13T03:08:14.729Z,81.40
2018-06-13T03:10:17.093Z,81.50
2018-06-13T03:12:19.185Z,81.80
2018-06-13T03:14:21.241Z,81.30
2018-06-13T03:16:23.357Z,81.40
2018-06-13T03:18:25.430Z,81.40
2018-06-13T03:20:27.549Z,81.40
2018-06-13T03:22:30.053Z,81.20
2018-06-13T03:24:32.137Z,80.90
2018-06-13T03:26:34.217Z,80.50
2018-06-13T03:28:36.354Z,81.00
2018-06-13T03:30:38.459Z,81.30
2018-06-13T03:32:40.536Z,81.10
2018-06-13T03:34:42.634Z,81.20
2018-06-13T03:36:44.710Z,81.10
2018-06-13T03:38:46.784Z,81.10
2018-06-13T03:40:48.856Z,81.80
2018-06-13T03:42:50.935Z,82.20
2018-06-13T03:44:53.771Z,81.80
2018-06-13T03:46:55.833Z,81.50
2018-06-13T03:48:57.918Z,81.30
2018-06-13T03:50:59.997Z,81.50
2018-06-13T03:53:02.350Z,81.60
2018-06-13T03:55:04.529Z,81.80
2018-06-13T03:57:06.604Z,81.40
2018-06-13T03:59:08.713Z,81.10
2018-06-13T04:01:10.790Z,80.90
2018-06-13T04:03:13.044Z,80.70
2018-06-13T04:05:15.125Z,81.10
2018-06-13T04:07:17.325Z,80.90
2018-06-13T04:09:19.364Z,80.80
2018-06-13T04:11:21.744Z,81.30
2018-06-13T04:13:24.082Z,81.20
2018-06-13T04:15:26.151Z,81.30
2018-06-13T04:17:28.267Z,80.70
2018-06-13T04:19:30.337Z,80.70
2018-06-13T04:21:32.402Z,80.90
2018-06-13T04:23:34.738Z,80.80
2018-06-13T04:25:36.825Z,80.60
2018-06-13T04:27:38.901Z,80.50
2018-06-13T04:29:41.106Z,80.50
2018-06-13T04:31:43.166Z,80.30
2018-06-13T04:33:45.254Z,80.30
2018-06-13T04:35:47.339Z,80.30
2018-06-13T04:37:49.412Z,80.40
2018-06-13T04:39:52.098Z,80.10
2018-06-13T04:41:54.226Z,80.40
2018-06-13T04:43:56.514Z,80.20
2018-06-13T04:45:58.605Z,80.40
2018-06-13T04:48:00.686Z,80.30
2018-06-13T04:50:04.645Z,79.70
2018-06-13T04:52:06.814Z,79.70
2018-06-13T04:54:09.076Z,80.00
2018-06-13T04:56:11.162Z,80.10
2018-06-13T04:58:13.229Z,80.00
2018-06-13T05:00:15.283Z,80.20
2018-06-13T05:02:17.408Z,80.20
2018-06-13T05:04:19.474Z,80.30
2018-06-13T05:06:21.540Z,80.40
2018-06-13T05:08:23.661Z,79.90
2018-06-13T05:10:25.785Z,79.80
2018-06-13T05:12:27.846Z,79.40
2018-06-13T05:14:29.909Z,79.10
2018-06-13T05:16:31.974Z,79.30
2018-06-13T05:18:34.058Z,79.10
2018-06-13T05:20:36.131Z,78.90
2018-06-13T05:22:38.238Z,78.80
2018-06-13T05:24:40.293Z,78.50
2018-06-13T05:26:42.390Z,78.70
2018-06-13T05:28:44.492Z,78.80
2018-06-13T05:30:46.554Z,79.10
2018-06-13T05:32:49.026Z,78.50
2018-06-13T05:34:51.082Z,78.30
2018-06-13T05:36:53.157Z,78.20
2018-06-13T05:38:56.063Z,78.10
2018-06-13T05:40:58.154Z,77.80
2018-06-13T05:43:00.238Z,78.00
2018-06-13T05:45:02.396Z,77.30
2018-06-13T05:47:04.506Z,77.00
2018-06-13T05:49:07.233Z,77.10
2018-06-13T05:51:09.493Z,77.40
2018-06-13T05:53:11.579Z,77.20
2018-06-13T05:55:13.644Z,77.40
2018-06-13T05:57:15.722Z,77.40
2018-06-13T05:59:17.817Z,76.60
2018-06-13T06:01:19.932Z,76.10
2018-06-13T06:03:21.986Z,76.40
2018-06-13T06:05:24.365Z,75.70
2018-06-13T06:07:26.452Z,75.50
2018-06-13T06:09:28.527Z,75.60
2018-06-13T06:11:30.610Z,75.50
2018-06-13T06:13:33.882Z,75.40
2018-06-13T06:15:35.949Z,74.90
2018-06-13T06:17:38.015Z,74.60
2018-06-13T06:19:41.109Z,74.50
2018-06-13T06:21:43.351Z,74.80
2018-06-13T06:23:45.443Z,74.10
2018-06-13T06:25:47.594Z,74.30
2018-06-13T06:27:49.683Z,75.20
2018-06-13T06:29:51.794Z,75.30
2018-06-13T06:31:53.898Z,74.60
2018-06-13T06:33:56.040Z,74.40
2018-06-13T06:35:58.140Z,74.40
2018-06-13T06:38:00.244Z,74.20
2018-06-13T06:40:02.422Z,74.50
2018-06-13T06:42:04.997Z,74.00
2018-06-13T06:44:07.108Z,73.30
2018-06-13T06:46:09.214Z,73.10
2018-06-13T06:48:11.327Z,72.60
2018-06-13T06:50:13.424Z,71.50
2018-06-13T06:52:15.537Z,71.90
2018-06-13T06:54:17.631Z,70.20
2018-06-13T06:56:19.735Z,69.40
2018-06-13T06:58:21.935Z,69.30
2018-06-13T07:00:24.028Z,69.60
2018-06-13T07:02:26.121Z,69.20
2018-06-13T07:04:28.234Z,68.40
2018-06-13T07:06:30.382Z,67.80
2018-06-13T07:08:32.488Z,68.70
2018-06-13T07:10:34.624Z,69.00
2018-06-13T07:12:36.743Z,68.20
2018-06-13T07:14:38.833Z,67.70
2018-06-13T07:16:40.962Z,67.50
2018-06-13T07:18:43.103Z,67.30
2018-06-13T07:20:45.371Z,66.20
2018-06-13T07:22:47.491Z,66.30
2018-06-13T07:24:49.577Z,66.60
2018-06-13T07:26:51.686Z,68.20
2018-06-13T07:28:53.760Z,67.00
2018-06-13T07:30:55.852Z,67.20
2018-06-13T07:32:58.226Z,65.80
2018-06-13T07:35:00.295Z,65.30
2018-06-13T07:37:02.396Z,65.10
2018-06-13T07:39:07.238Z,65.50
2018-06-13T07:41:09.329Z,64.90
2018-06-13T07:43:11.425Z,65.50
2018-06-13T07:45:13.656Z,65.50
2018-06-13T07:47:15.758Z,66.00
2018-06-13T07:49:17.854Z,66.40
2018-06-13T07:51:20.253Z,66.10
2018-06-13T07:53:22.388Z,65.70
2018-06-13T07:55:24.512Z,65.50
2018-06-13T07:57:26.641Z,65.90
2018-06-13T07:59:28.730Z,64.50
2018-06-13T08:01:30.832Z,64.40
2018-06-13T08:03:32.909Z,64.30
2018-06-13T08:05:35.023Z,63.00
2018-06-13T08:07:37.117Z,63.30
2018-06-13T08:09:39.335Z,62.90
2018-06-13T08:11:41.752Z,63.40
2018-06-13T08:13:43.834Z,63.50
2018-06-13T08:15:45.939Z,63.10
2018-06-13T08:17:48.042Z,63.70
2018-06-13T08:19:50.123Z,64.10
2018-06-13T08:21:52.401Z,63.70
2018-06-13T08:23:54.498Z,63.80
2018-06-13T08:25:56.626Z,63.60
2018-06-13T08:27:58.898Z,64.00
2018-06-13T08:30:01.001Z,63.80
2018-06-13T08:32:03.099Z,63.40
2018-06-13T08:34:05.252Z,62.40
2018-06-13T08:36:07.334Z,62.60
2018-06-13T08:38:09.439Z,62.30
2018-06-13T08:40:11.544Z,60.60
2018-06-13T08:42:13.617Z,59.90
2018-06-13T08:44:15.695Z,60.70
2018-06-13T08:46:17.818Z,60.70
2018-06-13T08:48:19.903Z,59.80
2018-06-13T08:50:22.018Z,59.70
2018-06-13T08:52:24.107Z,60.30
2018-06-13T08:54:26.203Z,60.20
2018-06-13T08:56:28.309Z,60.30
2018-06-13T08:58:30.432Z,60.50
2018-06-13T09:00:32.530Z,61.20
2018-06-13T09:02:34.615Z,61.20
2018-06-13T09:04:36.808Z,60.50
2018-06-13T09:06:45.661Z,60.80
2018-06-13T09:08:47.745Z,60.80
2018-06-13T09:10:49.833Z,61.10
2018-06-13T09:12:51.944Z,61.00
2018-06-13T09:14:54.071Z,60.30
2018-06-13T09:16:56.150Z,60.80
2018-06-13T09:18:58.280Z,60.40
2018-06-13T09:21:00.386Z,59.90
2018-06-13T09:23:02.508Z,59.40
2018-06-13T09:25:04.713Z,59.30
2018-06-13T09:27:06.836Z,58.10
2018-06-13T09:29:09.208Z,57.30
2018-06-13T09:31:11.316Z,57.00
2018-06-13T09:33:13.400Z,57.20
2018-06-13T09:35:15.517Z,56.80
2018-06-13T09:37:17.614Z,57.80
2018-06-13T09:39:19.688Z,58.40
2018-06-13T09:41:21.779Z,58.40
2018-06-13T09:43:23.894Z,58.40
2018-06-13T09:45:25.992Z,58.90
2018-06-13T09:47:28.098Z,58.60
2018-06-13T09:49:31.119Z,58.80
2018-06-13T09:51:33.199Z,57.60
2018-06-13T09:53:35.332Z,58.70
2018-06-13T09:55:37.410Z,58.80
2018-06-13T09:57:39.502Z,58.50
2018-06-13T09:59:47.380Z,58.50
2018-06-13T10:01:55.260Z,58.60
2018-06-13T10:03:57.364Z,57.90
2018-06-13T10:05:59.528Z,57.30
2018-06-13T10:08:01.636Z,57.80
2018-06-13T10:10:03.776Z,58.40
2018-06-13T10:12:05.916Z,58.80
2018-06-13T10:14:08.003Z,58.90
2018-06-13T10:16:10.147Z,59.40
2018-06-13T10:18:12.243Z,59.30
2018-06-13T10:20:14.360Z,59.00
2018-06-13T10:22:16.492Z,58.80
2018-06-13T10:24:18.562Z,59.00
2018-06-13T10:26:20.643Z,57.40
2018-06-13T10:28:22.751Z,56.90
2018-06-13T10:30:24.842Z,56.80
2018-06-13T10:32:26.912Z,57.40
2018-06-13T10:34:29.002Z,56.70
2018-06-13T10:36:31.127Z,57.00
2018-06-13T10:38:33.203Z,57.00
2018-06-13T10:40:35.328Z,56.90
2018-06-13T10:42:37.393Z,57.50
2018-06-13T10:44:39.498Z,56.80
2018-06-13T10:46:41.611Z,57.10
2018-06-13T10:48:43.685Z,57.90
2018-06-13T10:50:45.762Z,57.70
2018-06-13T10:52:48.203Z,58.50
2018-06-13T10:54:50.275Z,59.30
2018-06-13T10:56:52.387Z,59.30
2018-06-13T10:58:54.528Z,60.10
2018-06-13T11:00:56.615Z,60.30
2018-06-13T11:02:58.711Z,61.00
2018-06-13T11:05:00.886Z,61.20
2018-06-13T11:07:03.014Z,62.40
2018-06-13T11:09:07.109Z,62.90
2018-06-13T11:11:09.212Z,63.30
2018-06-13T11:13:11.315Z,63.20
2018-06-13T11:15:13.430Z,64.30
2018-06-13T11:17:15.716Z,63.70
2018-06-13T11:19:17.803Z,63.40
2018-06-13T11:21:19.897Z,63.30
2018-06-13T11:23:21.990Z,64.00
2018-06-13T11:25:24.090Z,62.50
2018-06-13T11:27:26.190Z,61.70
2018-06-13T11:29:28.296Z,60.90
2018-06-13T11:31:30.421Z,60.60
2018-06-13T11:33:32.501Z,60.30
2018-06-13T11:35:34.751Z,60.70
2018-06-13T11:37:36.938Z,60.70
2018-06-13T11:39:39.039Z,61.70
2018-06-13T11:41:41.143Z,62.80
2018-06-13T11:43:43.292Z,62.90
2018-06-13T11:45:45.408Z,63.50
2018-06-13T11:47:47.528Z,64.10
2018-06-13T11:49:49.643Z,64.10
2018-06-13T11:51:51.856Z,62.80
2018-06-13T11:53:54.022Z,62.90
2018-06-13T11:55:56.120Z,63.70
2018-06-13T11:57:58.387Z,65.50
2018-06-13T12:00:00.496Z,65.90
2018-06-13T12:02:02.609Z,65.50
2018-06-13T12:04:04.806Z,66.60
2018-06-13T12:06:06.970Z,66.50
2018-06-13T12:08:09.006Z,66.40
2018-06-13T12:10:11.128Z,66.30
2018-06-13T12:12:13.214Z,66.20
2018-06-13T12:14:15.311Z,66.90
2018-06-13T12:16:17.427Z,66.40
2018-06-13T12:18:19.519Z,67.00
2018-06-13T12:20:21.616Z,66.60
2018-06-13T12:22:23.729Z,66.20
2018-06-13T12:24:25.843Z,65.40
2018-06-13T12:26:27.975Z,65.40
2018-06-13T12:28:30.393Z,65.20
2018-06-13T12:30:32.434Z,64.50
2018-06-13T12:32:34.540Z,64.60
2018-06-13T12:34:36.641Z,64.40
2018-06-13T12:36:38.736Z,64.30
2018-06-13T12:38:41.115Z,64.30
2018-06-13T12:40:43.228Z,64.40
2018-06-13T12:42:45.307Z,64.00
2018-06-13T12:44:47.395Z,64.40
2018-06-13T12:46:49.492Z,64.80
2018-06-13T12:48:51.617Z,65.40
2018-06-13T12:50:53.758Z,66.10
2018-06-13T12:52:56.250Z,65.70
2018-06-13T12:54:58.350Z,64.90
2018-06-13T12:57:00.460Z,65.30
2018-06-13T12:59:02.704Z,65.40
2018-06-13T13:01:04.668Z,65.90
2018-06-13T13:03:06.755Z,65.80
2018-06-13T13:05:08.870Z,65.70
2018-06-13T13:07:10.951Z,64.80
2018-06-13T13:09:13.320Z,65.20
2018-06-13T13:11:15.548Z,65.50
2018-06-13T13:13:17.612Z,66.70
2018-06-13T13:15:19.714Z,65.50
2018-06-13T13:17:21.994Z,65.00
2018-06-13T13:19:24.162Z,65.10
2018-06-13T13:21:28.744Z,65.50
2018-06-13T13:23:30.906Z,65.30
2018-06-13T13:25:35.377Z,64.60
2018-06-13T13:27:37.522Z,64.30
2018-06-13T13:29:39.670Z,64.00
2018-06-13T13:31:41.775Z,63.70
2018-06-13T13:33:43.942Z,63.40
2018-06-13T13:35:46.121Z,61.90
2018-06-13T13:37:48.179Z,62.20
2018-06-13T13:39:50.290Z,62.30
2018-06-13T13:41:52.384Z,62.40
2018-06-13T13:43:54.909Z,63.10
2018-06-13T13:48:06.852Z,62.40
2018-06-13T13:50:08.991Z,62.60
2018-06-13T13:52:11.146Z,61.70
2018-06-13T13:54:13.346Z,61.90
2018-06-13T13:56:15.340Z,61.60
2018-06-13T13:58:17.465Z,61.30
2018-06-13T14:00:19.621Z,61.80
2018-06-13T14:02:23.014Z,62.10
2018-06-13T14:04:25.884Z,61.40
2018-06-13T14:06:27.978Z,61.60
2018-06-13T14:08:30.078Z,61.40
2018-06-13T14:10:32.184Z,61.20
2018-06-13T14:12:34.319Z,60.30
2018-06-13T14:14:36.415Z,60.50
2018-06-13T14:16:38.505Z,60.70
2018-06-13T14:18:40.665Z,61.20
2018-06-13T14:20:42.767Z,60.90
2018-06-13T14:22:45.046Z,61.00
2018-06-13T14:24:47.121Z,60.80
2018-06-13T14:26:49.205Z,60.10
2018-06-13T14:28:51.291Z,60.30
2018-06-13T14:30:53.389Z,59.70
2018-06-13T14:32:55.494Z,59.70
2018-06-13T14:34:58.302Z,59.70
2018-06-13T14:37:00.436Z,59.70
2018-06-13T14:39:03.915Z,60.80
2018-06-13T14:41:06.117Z,58.90
2018-06-13T14:43:08.190Z,58.50
2018-06-13T14:45:10.496Z,58.90
2018-06-13T14:47:12.603Z,59.40
2018-06-13T14:49:14.725Z,60.00
2018-06-13T14:51:17.417Z,60.70
2018-06-13T14:53:19.511Z,61.70
2018-06-13T14:55:21.733Z,61.80
2018-06-13T14:57:23.834Z,62.10
2018-06-13T14:59:25.927Z,61.00
2018-06-13T15:01:28.170Z,61.00
2018-06-13T15:03:30.690Z,60.50
2018-06-13T15:05:32.802Z,60.30
2018-06-13T15:07:34.898Z,60.00
2018-06-13T15:09:37.003Z,59.60
2018-06-13T15:11:39.451Z,59.50
2018-06-13T15:13:41.596Z,59.60
2018-06-13T15:15:43.820Z,59.50
2018-06-13T15:17:45.919Z,59.30
2018-06-13T15:19:48.015Z,59.60
2018-06-13T15:21:50.159Z,60.40
2018-06-13T15:23:52.267Z,61.10
2018-06-13T15:25:54.423Z,60.00
2018-06-13T15:27:56.580Z,59.70
2018-06-13T15:29:58.686Z,59.00
2018-06-13T15:32:00.761Z,59.30
2018-06-13T15:34:02.889Z,60.00
2018-06-13T15:36:05.459Z,60.90
2018-06-13T15:38:07.565Z,61.00
2018-06-13T15:40:09.726Z,60.60
2018-06-13T15:42:11.816Z,60.90
2018-06-13T15:44:13.962Z,61.00
2018-06-13T15:46:16.057Z,61.90
2018-06-13T15:48:18.150Z,62.10
2018-06-13T15:50:20.682Z,62.20
2018-06-13T15:52:22.802Z,62.50
2018-06-13T15:54:25.053Z,62.70
2018-06-13T15:56:27.302Z,63.00
2018-06-13T15:58:29.462Z,63.00
2018-06-13T16:00:31.621Z,63.60
2018-06-13T16:02:33.841Z,63.90
2018-06-13T16:04:36.002Z,63.20
2018-06-13T16:06:38.214Z,63.30
2018-06-13T16:08:40.559Z,63.20
2018-06-13T16:10:42.826Z,63.50
2018-06-13T16:12:44.972Z,63.50
2018-06-13T16:14:47.145Z,63.90
2018-06-13T16:16:49.289Z,64.40
2018-06-13T16:18:51.446Z,64.10
2018-06-13T16:20:53.666Z,63.80
2018-06-13T16:22:56.006Z,63.70
2018-06-13T16:24:58.171Z,63.60
2018-06-13T16:27:00.310Z,63.60
2018-06-13T16:29:02.566Z,63.70
2018-06-13T16:31:06.694Z,63.40
2018-06-13T16:33:08.861Z,63.30
2018-06-13T16:35:11.019Z,63.70
2018-06-13T16:37:13.222Z,63.70
2018-06-13T16:39:15.385Z,63.70
2018-06-13T16:41:17.522Z,63.50
2018-06-13T16:43:19.673Z,63.50
2018-06-13T16:45:21.867Z,64.20
2018-06-13T16:47:24.019Z,64.80
2018-06-13T16:49:26.176Z,65.20
2018-06-13T16:51:39.934Z,65.20
2018-06-13T16:53:56.114Z,65.60
2018-06-13T16:55:58.267Z,65.80
2018-06-13T16:58:00.987Z,65.60
2018-06-13T17:00:03.189Z,65.50
2018-06-13T17:02:05.359Z,65.40
2018-06-13T17:04:07.759Z,65.70
2018-06-13T17:06:11.077Z,65.70
2018-06-13T17:08:13.210Z,65.40
2018-06-13T17:10:15.379Z,66.20
2018-06-13T17:12:17.570Z,65.60
2018-06-13T17:14:19.738Z,66.70
2018-06-13T17:16:22.061Z,67.20
2018-06-13T17:18:24.305Z,67.00
2018-06-13T17:20:26.459Z,67.20
2018-06-13T17:22:28.617Z,67.20
2018-06-13T17:24:30.788Z,67.00
2018-06-13T17:26:32.967Z,67.60
2018-06-13T17:28:35.061Z,67.60
2018-06-13T17:30:37.178Z,68.40
2018-06-13T17:32:39.361Z,68.20
2018-06-13T17:34:41.502Z,68.10
2018-06-13T17:36:43.647Z,68.20
2018-06-13T17:38:46.073Z,68.00
2018-06-13T17:40:48.379Z,68.40
2018-06-13T17:42:50.756Z,68.80
2018-06-13T17:44:52.920Z,69.00
2018-06-13T17:46:55.067Z,69.00
2018-06-13T17:48:57.225Z,68.50
2018-06-13T17:50:59.362Z,68.40
2018-06-13T17:53:01.642Z,68.20
2018-06-13T17:55:03.929Z,68.70
2018-06-13T17:57:06.226Z,68.70
2018-06-13T17:59:08.389Z,69.40
2018-06-13T18:01:10.517Z,69.60
2018-06-13T18:03:12.756Z,69.90
2018-06-13T18:05:15.191Z,70.20
2018-06-13T18:07:17.506Z,70.80
2018-06-13T18:09:19.706Z,72.00
2018-06-13T18:11:21.918Z,72.60
2018-06-13T18:13:24.274Z,72.50
2018-06-13T18:15:26.706Z,72.20
2018-06-13T18:17:28.887Z,72.20
2018-06-13T18:19:31.140Z,72.30
2018-06-13T18:21:33.399Z,73.10
2018-06-13T18:23:35.633Z,74.70
2018-06-13T18:25:37.968Z,74.90
2018-06-13T18:27:40.190Z,75.00
2018-06-13T18:29:42.383Z,74.90
2018-06-13T18:31:44.570Z,74.80
2018-06-13T18:33:46.827Z,73.70
2018-06-13T18:35:49.046Z,73.10
2018-06-13T18:37:51.503Z,72.90
2018-06-13T18:39:53.877Z,73.10
2018-06-13T18:41:56.136Z,73.30
2018-06-13T18:43:58.580Z,74.00
2018-06-13T18:46:02.634Z,73.40
2018-06-13T18:48:04.888Z,72.90
2018-06-13T18:50:07.085Z,73.00
2018-06-13T18:52:09.940Z,73.20
2018-06-13T18:54:12.077Z,72.70
2018-06-13T18:56:14.442Z,72.70
2018-06-13T18:58:16.650Z,74.00
2018-06-13T19:00:19.030Z,74.80
2018-06-13T19:02:21.170Z,74.50
2018-06-13T19:04:23.466Z,74.90
2018-06-13T19:06:25.992Z,74.70
2018-06-13T19:08:28.231Z,74.40
2018-06-13T19:10:30.593Z,74.20
2018-06-13T19:12:32.886Z,74.20
2018-06-13T19:14:35.115Z,74.30
2018-06-13T19:16:37.560Z,73.90
2018-06-13T19:18:39.897Z,73.70
2018-06-13T19:20:42.190Z,73.60
2018-06-13T19:22:44.363Z,74.10
2018-06-13T19:24:46.612Z,74.10
2018-06-13T19:26:48.818Z,73.30
2018-06-13T19:28:51.710Z,73.10
2018-06-13T19:30:53.910Z,72.50
2018-06-13T19:32:56.246Z,72.60
2018-06-13T19:34:58.796Z,71.90
2018-06-13T19:37:19.529Z,71.90
2018-06-13T19:39:27.228Z,72.20
2018-06-13T19:41:44.334Z,72.30
2018-06-13T19:43:47.429Z,73.30
2018-06-13T19:45:49.702Z,74.00
2018-06-13T19:47:57.862Z,73.60
2018-06-13T19:50:00.065Z,73.20
2018-06-13T19:52:02.415Z,72.80
2018-06-13T19:54:10.966Z,73.20
2018-06-13T19:56:14.399Z,73.50
2018-06-13T19:58:16.570Z,73.60
2018-06-13T20:00:19.038Z,73.20
2018-06-13T20:02:21.359Z,73.30
2018-06-13T20:04:29.228Z,73.50
2018-06-13T20:06:31.574Z,73.30
2018-06-13T20:08:40.340Z,73.30
2018-06-13T20:10:43.837Z,72.80
2018-06-13T20:12:55.333Z,72.60
2018-06-13T20:15:03.464Z,72.10
2018-06-13T20:17:11.163Z,71.80
2018-06-13T20:19:50.462Z,71.50
2018-06-13T20:21:53.925Z,71.80
2018-06-13T20:23:56.159Z,71.70
2018-06-13T20:26:04.009Z,71.80
2018-06-13T20:28:11.938Z,71.40
2018-06-13T20:31:23.447Z,71.80
2018-06-13T20:33:25.807Z,72.00
2018-06-13T20:35:28.076Z,73.20
2018-06-13T20:37:30.190Z,72.60
2018-06-13T20:39:32.544Z,72.80
2018-06-13T20:41:34.695Z,73.60
2018-06-13T20:43:36.913Z,72.90
2018-06-13T20:45:39.116Z,73.70
2018-06-13T20:47:41.384Z,72.90
2018-06-13T20:49:43.599Z,73.00
2018-06-13T20:51:45.778Z,73.10
2018-06-13T20:53:48.067Z,73.10
2018-06-13T20:55:50.191Z,72.80
2018-06-13T20:57:52.642Z,74.00
2018-06-13T20:59:54.818Z,73.50
2018-06-13T21:01:57.006Z,72.90
2018-06-13T21:03:59.194Z,72.30
2018-06-13T21:06:01.432Z,72.70
2018-06-13T21:08:03.663Z,72.30
2018-06-13T21:10:05.839Z,72.10
2018-06-13T21:12:07.992Z,72.30
2018-06-13T21:14:10.161Z,72.60
2018-06-13T21:16:12.330Z,72.40
2018-06-13T21:18:15.390Z,73.10
2018-06-13T21:20:17.693Z,72.80
2018-06-13T21:22:20.060Z,73.00
2018-06-13T21:24:22.270Z,73.30
2018-06-13T21:26:24.595Z,73.30
2018-06-13T21:28:26.862Z,73.40
2018-06-13T21:30:28.998Z,73.10
2018-06-13T21:32:31.259Z,73.40
2018-06-13T21:34:33.402Z,72.80
2018-06-13T21:36:35.638Z,72.30
2018-06-13T21:38:37.814Z,72.40
2018-06-13T21:40:40.015Z,72.60
2018-06-13T21:42:42.154Z,73.70
2018-06-13T21:44:44.321Z,74.60
2018-06-13T21:46:46.436Z,75.20
2018-06-13T21:48:48.581Z,75.70
2018-06-13T21:50:50.701Z,76.10
2018-06-13T21:52:52.832Z,76.40
2018-06-13T21:54:54.960Z,76.40
2018-06-13T21:56:57.027Z,76.50
2018-06-13T21:58:59.215Z,76.30
2018-06-13T22:01:01.225Z,76.50
2018-06-13T22:03:03.303Z,76.60
2018-06-13T22:05:05.489Z,76.20
2018-06-13T22:07:07.581Z,76.00
2018-06-13T22:09:10.574Z,76.20
2018-06-13T22:11:12.634Z,76.50
2018-06-13T22:13:14.715Z,77.00
2018-06-13T22:15:26.026Z,77.30
2018-06-13T22:17:28.082Z,76.50
2018-06-13T22:19:30.199Z,75.80
2018-06-13T22:21:32.284Z,76.20
2018-06-13T22:23:34.373Z,75.40
2018-06-13T22:25:37.164Z,75.50
2018-06-13T22:27:40.256Z,75.70
2018-06-13T22:29:42.349Z,76.30
2018-06-13T22:31:44.422Z,77.80
2018-06-13T22:33:46.515Z,78.00
2018-06-13T22:35:48.605Z,78.30
2018-06-13T22:37:50.712Z,78.30
2018-06-13T22:39:52.817Z,78.60
2018-06-13T22:41:54.878Z,79.00
2018-06-13T22:43:57.229Z,79.10
2018-06-13T22:45:59.322Z,78.40
2018-06-13T22:48:01.382Z,78.10
2018-06-13T22:50:03.787Z,78.20
2018-06-13T22:52:05.845Z,78.60
2018-06-13T22:54:07.918Z,79.20
2018-06-13T22:56:10.045Z,79.50
2018-06-13T22:58:12.142Z,79.60
2018-06-13T23:00:21.306Z,79.80
2018-06-13T23:02:23.396Z,79.50
2018-06-13T23:04:25.466Z,79.40
2018-06-13T23:06:27.537Z,79.50
2018-06-13T23:08:30.479Z,80.00
2018-06-13T23:10:32.555Z,80.00
2018-06-13T23:12:34.618Z,80.00
2018-06-13T23:14:36.708Z,80.40
2018-06-13T23:16:38.786Z,80.40
2018-06-13T23:18:40.862Z,80.40
2018-06-13T23:20:43.126Z,80.40
2018-06-13T23:22:45.233Z,80.40
2018-06-13T23:24:47.566Z,80.40
2018-06-13T23:26:49.710Z,79.90
2018-06-13T23:28:51.721Z,79.20
2018-06-13T23:30:53.803Z,79.50
2018-06-13T23:32:55.939Z,79.80
2018-06-13T23:34:58.112Z,80.30
2018-06-13T23:37:00.219Z,80.60
2018-06-13T23:39:02.526Z,80.70
2018-06-13T23:41:04.709Z,80.70
2018-06-13T23:43:06.877Z,80.80
2018-06-13T23:45:15.613Z,81.10
2018-06-13T23:47:17.750Z,80.90
2018-06-13T23:49:20.106Z,81.00
2018-06-13T23:51:22.166Z,81.10
2018-06-13T23:53:24.233Z,81.10
2018-06-13T23:55:26.333Z,80.80
2018-06-13T23:57:28.446Z,80.90
2018-06-13T23:59:30.668Z,81.20
